Detall de PIREP

Printer-friendly versionPDF version

[2012/12/22 15:02:00]
Flight IATA:CT1004
Pilot Number:012
Company ICAO:CAT
Aircraft Type:MD11/E
PAX:247
Aircraft Registration:PAX
Departing Airport: GMMN
Destination Airport: LFMP
Alternate Airport:LFBO
Online: VATSIM
Route:BISMI/N290F240 R975 FES/M080F380 UG850 BERUM UN860 VLC UM985 BCN UN870 FEVIK/N290F220 A27 KANIG
Flight Level:F380
No Slew and time accel
No pause
Crash detect
Detect pilot in Cockpit between each 30 and 45 minutes
15:02 Zero fuel Weight: 390879 Lbs, Fuel Weight: 53187 Lbs
15:02 VATSIM:GMMN 221430Z 03005KT CAVOK 22/12 Q1023 NOSIG
15:02 VATSIM:LFMP 221430Z 15005KT 110V170 CAVOK 15/07 Q1021 NOSIG
15:03 VOICE CATALONIAN / X-MAS CHARTER
15:04 Parking Brakes off
15:09 Take-off
15:09 Take off Weight: 442864 Lbs
15:09 Wind: 035º @ 005 Knots Heading: 345º
15:09 POS N33º 21´ 51´´ W007º 35´ 11´´
15:09 Gear Up: 180 Knots
15:09 Flaps:3 at 180 Knots
15:11 Flaps:2 at 182 Knots
15:11 Flaps:3 at 184 Knots
15:11 Flaps:2 at 185 Knots
15:11 Flaps:1 at 187 Knots
15:11 Flaps:0 at 200 Knots
15:24 Wind:316º@015 Knots Heading: 078º Ground Speed: 485 Knots Altitude 36223 ft
15:26 TOC
15:26 Fuel Weight: 42239 Lb
15:39 Wind:269º@008 Knots Heading: 036º Ground Speed: 478 Knots Altitude 38307 ft
15:54 Wind:035º@012 Knots Heading: 038º Ground Speed: 459 Knots Altitude 38300 ft
16:09 Wind:357º@022 Knots Heading: 026º Ground Speed: 451 Knots Altitude 38287 ft
16:24 Wind:331º@051 Knots Heading: 040º Ground Speed: 453 Knots Altitude 38228 ft
16:39 Wind:327º@063 Knots Heading: 040º Ground Speed: 451 Knots Altitude 38267 ft
16:42 TOD
16:42 Fuel Weight: 24202 Lb
16:54 Wind:321º@053 Knots Heading: 339º Ground Speed: 284 Knots Altitude 15518 ft
17:02 Flaps:1 at 250 Knots
17:06 Flaps:2 at 232 Knots
17:06 Flaps:3 at 232 Knots
17:06 Flaps:2 at 232 Knots
17:06 Flaps:3 at 232 Knots
17:06 Flaps:4 at 232 Knots
17:06 Flaps:5 at 221 Knots
17:06 Flaps:6 at 211 Knots
17:07 Flaps:7 at 162 Knots
17:07 Gear Down: 160 Knots
17:09 Wind:002º@002 Knots Heading: 327º Ground Speed: 147 Knots Altitude 1345 ft
17:10 TouchDown:Rate -414 ft/min Speed: 141 Knots
17:10 VATSIM:LFMP 221700Z 00000KT CAVOK 11/07 Q1021 NOSIG
17:10 Land
17:10 Wind:002º@002 Knots
17:10 Heading: 326º
17:10 Flight Duration: 02:01
17:10 Landing Weight: 410534 Lbs
17:10 POS N42º 45´ 02´´ E002º 51´ 52´´
17:13 Parking brakes on
17:13 Block to Block Duration: 02:09
17:13 Final Fuel: 19362 Lbls
17:13 Spent Fuel: 33825 Lbls
17:13 Flight Length: 845 NM
17:13 TOD Land Length: 139 NM

Exportar CSV

Powered by Drupal - Modified by Danger4k